createdAt,value
2022-11-10T00:00:29.377Z,7.56
2022-11-10T00:01:29.392Z,7.58
2022-11-10T00:02:29.363Z,7.60
2022-11-10T00:03:29.350Z,7.60
2022-11-10T00:04:29.374Z,7.54
2022-11-10T00:05:29.335Z,7.51
2022-11-10T00:06:29.432Z,7.42
2022-11-10T00:07:30.456Z,7.42
2022-11-10T00:08:30.457Z,7.38
2022-11-10T00:09:30.442Z,7.25
2022-11-10T00:10:30.441Z,7.21
2022-11-10T00:11:30.450Z,7.14
2022-11-10T00:12:30.422Z,7.11
2022-11-10T00:13:30.413Z,7.03
2022-11-10T00:14:30.410Z,7.05
2022-11-10T00:15:30.394Z,7.03
2022-11-10T00:16:30.420Z,6.99
2022-11-10T00:17:30.379Z,6.96
2022-11-10T00:18:30.368Z,7.13
2022-11-10T00:19:30.364Z,6.95
2022-11-10T00:20:30.354Z,7.06
2022-11-10T00:21:30.378Z,7.02
2022-11-10T00:22:30.338Z,7.02
2022-11-10T00:23:30.335Z,7.03
2022-11-10T00:24:30.323Z,7.06
2022-11-10T00:25:30.314Z,7.05
2022-11-10T00:26:30.332Z,7.05
2022-11-10T00:27:30.295Z,7.10
2022-11-10T00:28:30.289Z,7.07
2022-11-10T00:29:30.275Z,7.10
2022-11-10T00:30:30.279Z,7.03
2022-11-10T00:31:30.293Z,7.20
2022-11-10T00:32:30.261Z,7.15
2022-11-10T00:33:30.245Z,7.21
2022-11-10T00:34:30.241Z,7.23
2022-11-10T00:35:30.227Z,7.25
2022-11-10T00:36:30.245Z,7.31
2022-11-10T00:37:30.220Z,7.25
2022-11-10T00:38:30.209Z,7.14
2022-11-10T00:39:30.211Z,7.17
2022-11-10T00:40:30.224Z,7.18
2022-11-10T00:41:30.213Z,7.14
2022-11-10T00:42:30.173Z,6.99
2022-11-10T00:43:30.481Z,6.97
2022-11-10T00:44:30.168Z,7.00
2022-11-10T00:45:30.149Z,6.95
2022-11-10T00:46:30.180Z,6.89
2022-11-10T00:47:30.138Z,6.97
2022-11-10T00:48:30.127Z,6.85
2022-11-10T00:49:30.120Z,6.81
2022-11-10T00:50:30.110Z,6.84
2022-11-10T00:51:30.098Z,6.89
2022-11-10T00:52:30.117Z,6.92
2022-11-10T00:53:30.086Z,7.02
2022-11-10T00:54:30.079Z,6.97
2022-11-10T00:55:30.069Z,6.95
2022-11-10T00:56:30.067Z,6.92
2022-11-10T00:57:30.088Z,7.06
2022-11-10T00:58:30.044Z,6.99
2022-11-10T00:59:30.052Z,7.02
2022-11-10T01:00:30.045Z,6.92
2022-11-10T01:01:30.071Z,6.97
2022-11-10T01:02:30.046Z,7.00
2022-11-10T01:03:30.006Z,7.00
2022-11-10T01:04:30.000Z,6.96
2022-11-10T01:05:29.995Z,6.87
2022-11-10T01:06:30.011Z,6.88
2022-11-10T01:07:29.999Z,6.78
2022-11-10T01:08:29.965Z,6.63
2022-11-10T01:09:29.964Z,6.75
2022-11-10T01:10:29.958Z,6.63
2022-11-10T01:11:29.951Z,6.54
2022-11-10T01:12:29.980Z,6.45
2022-11-10T01:13:29.928Z,6.49
2022-11-10T01:14:29.923Z,6.46
2022-11-10T01:15:29.918Z,6.33
2022-11-10T01:16:29.939Z,6.35
2022-11-10T01:17:29.897Z,6.31
2022-11-10T01:18:29.896Z,6.31
2022-11-10T01:19:29.881Z,6.22
2022-11-10T01:20:29.882Z,6.27
2022-11-10T01:21:29.870Z,6.19
2022-11-10T01:22:29.880Z,6.12
2022-11-10T01:23:29.847Z,6.09
2022-11-10T01:24:29.837Z,6.11
2022-11-10T01:25:29.836Z,6.14
2022-11-10T01:26:29.823Z,6.09
2022-11-10T01:27:29.845Z,6.08
2022-11-10T01:28:29.802Z,6.08
2022-11-10T01:29:29.798Z,6.05
2022-11-10T01:30:29.787Z,6.07
2022-11-10T01:31:29.804Z,6.14
2022-11-10T01:32:29.772Z,6.04
2022-11-10T01:33:29.762Z,5.93
2022-11-10T01:34:29.761Z,6.02
2022-11-10T01:35:29.748Z,6.07
2022-11-10T01:36:29.761Z,6.11
2022-11-10T01:37:29.744Z,6.19
2022-11-10T01:38:29.718Z,6.04
2022-11-10T01:39:29.717Z,6.12
2022-11-10T01:40:29.747Z,6.11
2022-11-10T01:41:29.730Z,6.16
2022-11-10T01:42:29.713Z,6.19
2022-11-10T01:43:29.686Z,6.17
2022-11-10T01:44:29.675Z,6.19
2022-11-10T01:45:29.675Z,6.09
2022-11-10T01:46:29.688Z,6.12
2022-11-10T01:47:29.657Z,6.02
2022-11-10T01:48:29.653Z,6.02
2022-11-10T01:49:29.639Z,6.02
2022-11-10T01:50:29.630Z,5.98
2022-11-10T01:51:29.621Z,5.98
2022-11-10T01:52:29.647Z,6.02
2022-11-10T01:53:29.607Z,5.97
2022-11-10T01:54:29.592Z,6.02
2022-11-10T01:55:29.591Z,5.89
2022-11-10T01:56:29.582Z,5.94
2022-11-10T01:57:29.597Z,5.82
2022-11-10T01:58:29.565Z,5.87
2022-11-10T01:59:29.556Z,5.86
2022-11-10T02:00:29.580Z,5.82
2022-11-10T02:01:29.544Z,5.76
2022-11-10T02:02:29.560Z,5.82
2022-11-10T02:03:29.526Z,5.73
2022-11-10T02:04:29.521Z,5.80
2022-11-10T02:05:29.517Z,5.79
2022-11-10T02:06:29.578Z,5.65
2022-11-10T02:07:29.524Z,5.69
2022-11-10T02:08:29.484Z,5.64
2022-11-10T02:09:29.476Z,5.61
2022-11-10T02:10:29.477Z,5.44
2022-11-10T02:11:29.464Z,5.51
2022-11-10T02:12:29.487Z,5.53
2022-11-10T02:13:29.446Z,5.50
2022-11-10T02:14:29.440Z,5.41
2022-11-10T02:15:29.433Z,5.43
2022-11-10T02:16:29.423Z,5.50
2022-11-10T02:17:29.439Z,5.47
2022-11-10T02:18:29.411Z,5.56
2022-11-10T02:19:29.392Z,5.43
2022-11-10T02:20:29.394Z,5.54
2022-11-10T02:21:29.386Z,5.41
2022-11-10T02:22:29.404Z,5.46
2022-11-10T02:23:29.370Z,5.53
2022-11-10T02:24:29.356Z,5.44
2022-11-10T02:25:29.347Z,5.43
2022-11-10T02:26:29.344Z,5.46
2022-11-10T02:27:29.363Z,5.33
2022-11-10T02:28:29.331Z,5.29
2022-11-10T02:29:29.314Z,5.30
2022-11-10T02:30:29.313Z,5.26
2022-11-10T02:31:29.305Z,5.17
2022-11-10T02:32:29.331Z,5.15
2022-11-10T02:33:29.293Z,5.25
2022-11-10T02:34:29.279Z,5.21
2022-11-10T02:35:29.271Z,5.20
2022-11-10T02:36:29.291Z,5.21
2022-11-10T02:37:29.255Z,5.07
2022-11-10T02:38:29.251Z,5.07
2022-11-10T02:39:29.244Z,5.12
2022-11-10T02:40:29.236Z,5.20
2022-11-10T02:41:29.231Z,5.15
2022-11-10T02:42:29.249Z,5.14
2022-11-10T02:43:29.213Z,5.20
2022-11-10T02:44:29.206Z,5.14
2022-11-10T02:45:29.200Z,5.21
2022-11-10T02:46:29.194Z,5.18
2022-11-10T02:47:29.212Z,5.26
2022-11-10T02:48:29.180Z,5.14
2022-11-10T02:49:29.162Z,5.11
2022-11-10T02:50:29.162Z,5.14
2022-11-10T02:51:29.147Z,5.15
2022-11-10T02:52:29.175Z,5.23
2022-11-10T02:53:29.136Z,5.28
2022-11-10T02:54:29.127Z,5.30
2022-11-10T02:55:29.120Z,5.23
2022-11-10T02:56:29.116Z,5.12
2022-11-10T02:57:29.130Z,5.07
2022-11-10T02:58:29.099Z,5.15
2022-11-10T02:59:29.099Z,5.02
2022-11-10T03:00:29.076Z,5.08
2022-11-10T03:01:29.151Z,5.02
2022-11-10T03:02:32.200Z,5.14
2022-11-10T03:03:30.054Z,5.21
2022-11-10T03:04:29.047Z,5.25
2022-11-10T03:05:29.037Z,5.28
2022-11-10T03:06:29.032Z,5.23
2022-11-10T03:07:29.042Z,5.28
2022-11-10T03:08:29.012Z,5.21
2022-11-10T03:09:29.003Z,5.25
2022-11-10T03:10:29.001Z,5.25
2022-11-10T03:11:32.227Z,5.30
2022-11-10T03:12:30.006Z,5.32
2022-11-10T03:13:40.235Z,5.35
2022-11-10T03:14:30.959Z,5.43
2022-11-10T03:15:28.952Z,5.36
2022-11-10T03:16:28.949Z,5.47
2022-11-10T03:17:28.968Z,5.46
2022-11-10T03:18:28.926Z,5.46
2022-11-10T03:19:28.934Z,5.53
2022-11-10T03:20:28.916Z,5.50
2022-11-10T03:21:28.905Z,5.57
2022-11-10T03:22:28.922Z,5.50
2022-11-10T03:23:28.894Z,5.47
2022-11-10T03:24:28.882Z,5.68
2022-11-10T03:25:28.865Z,5.59
2022-11-10T03:26:28.859Z,5.50
2022-11-10T03:27:28.884Z,5.44
2022-11-10T03:28:28.850Z,5.53
2022-11-10T03:29:28.843Z,5.54
2022-11-10T03:30:28.816Z,5.53
2022-11-10T03:31:29.821Z,5.46
2022-11-10T03:32:28.824Z,5.43
2022-11-10T03:33:28.830Z,5.44
2022-11-10T03:34:31.776Z,5.39
2022-11-10T03:35:29.799Z,5.39
2022-11-10T03:36:28.783Z,5.46
2022-11-10T03:37:28.776Z,5.36
2022-11-10T03:38:28.796Z,5.44
2022-11-10T03:39:28.755Z,5.38
2022-11-10T03:40:28.755Z,5.38
2022-11-10T03:41:28.757Z,5.48
2022-11-10T03:42:28.735Z,5.43
2022-11-10T03:43:28.759Z,5.48
2022-11-10T03:44:28.728Z,5.68
2022-11-10T03:45:28.720Z,5.66
2022-11-10T03:46:28.706Z,5.79
2022-11-10T03:47:28.700Z,5.90
2022-11-10T03:48:28.713Z,6.02
2022-11-10T03:49:28.684Z,6.02
2022-11-10T03:50:28.674Z,6.26
2022-11-10T03:51:28.663Z,6.27
2022-11-10T03:52:28.654Z,6.36
2022-11-10T03:53:28.671Z,6.38
2022-11-10T03:54:28.644Z,6.35
2022-11-10T03:55:28.630Z,6.39
2022-11-10T03:56:28.623Z,6.42
2022-11-10T03:57:28.656Z,6.46
2022-11-10T03:58:28.611Z,6.41
2022-11-10T03:59:28.607Z,6.35
2022-11-10T04:00:28.599Z,6.51
2022-11-10T04:01:28.647Z,6.52
2022-11-10T04:02:28.606Z,6.52
2022-11-10T04:03:28.578Z,6.46
2022-11-10T04:04:28.562Z,6.56
2022-11-10T04:05:28.559Z,6.54
2022-11-10T04:06:28.553Z,6.49
2022-11-10T04:07:28.548Z,6.49
2022-11-10T04:08:28.561Z,6.52
2022-11-10T04:09:28.529Z,6.54
2022-11-10T04:10:28.524Z,6.60
2022-11-10T04:11:28.509Z,6.57
2022-11-10T04:12:28.507Z,6.63
2022-11-10T04:13:28.522Z,6.51
2022-11-10T04:14:28.480Z,6.62
2022-11-10T04:15:28.475Z,6.69
2022-11-10T04:16:28.472Z,6.69
2022-11-10T04:17:28.468Z,6.72
2022-11-10T04:18:28.486Z,6.56
2022-11-10T04:19:28.447Z,6.66
2022-11-10T04:20:28.445Z,6.74
2022-11-10T04:21:28.432Z,6.70
2022-11-10T04:22:28.437Z,6.62
2022-11-10T04:23:28.444Z,6.56
2022-11-10T04:24:28.414Z,6.63
2022-11-10T04:25:28.396Z,6.60
2022-11-10T04:26:28.447Z,6.60
2022-11-10T04:27:28.381Z,6.46
2022-11-10T04:28:28.408Z,6.42
2022-11-10T04:29:28.374Z,6.44
2022-11-10T04:30:28.361Z,6.44
2022-11-10T04:31:28.349Z,6.26
2022-11-10T04:32:28.346Z,6.22
2022-11-10T04:33:28.364Z,6.19
2022-11-10T04:34:28.336Z,6.12
2022-11-10T04:35:28.326Z,6.01
2022-11-10T04:36:28.310Z,6.26
2022-11-10T04:37:28.306Z,6.28
2022-11-10T04:38:28.326Z,6.27
2022-11-10T04:39:28.289Z,6.22
2022-11-10T04:40:28.284Z,6.31
2022-11-10T04:41:28.335Z,6.19
2022-11-10T04:42:28.266Z,6.26
2022-11-10T04:43:28.287Z,6.12
2022-11-10T04:44:28.249Z,6.09
2022-11-10T04:45:28.231Z,6.02
2022-11-10T04:46:29.238Z,5.91
2022-11-10T04:47:28.228Z,5.82
2022-11-10T04:48:28.258Z,5.75
2022-11-10T04:49:28.221Z,5.69
2022-11-10T04:50:28.213Z,5.56
2022-11-10T04:51:28.400Z,5.61
2022-11-10T04:52:28.185Z,5.64
2022-11-10T04:53:29.204Z,5.56
2022-11-10T04:54:28.175Z,5.72
2022-11-10T04:55:28.161Z,5.66
2022-11-10T04:56:28.189Z,5.79
2022-11-10T04:57:28.147Z,5.72
2022-11-10T04:58:28.167Z,5.76
2022-11-10T04:59:28.136Z,5.83
2022-11-10T05:00:28.147Z,5.72
2022-11-10T05:01:28.119Z,5.71
2022-11-10T05:02:28.109Z,5.89
2022-11-10T05:03:28.130Z,5.98
2022-11-10T05:04:28.097Z,5.93
2022-11-10T05:05:28.105Z,6.04
2022-11-10T05:06:28.074Z,6.17
2022-11-10T05:07:28.068Z,6.08
2022-11-10T05:08:28.089Z,6.09
2022-11-10T05:09:28.056Z,6.12
2022-11-10T05:10:28.049Z,6.17
2022-11-10T05:11:28.044Z,6.19
2022-11-10T05:12:28.028Z,6.24
2022-11-10T05:13:28.051Z,6.19
2022-11-10T05:14:28.018Z,6.16
2022-11-10T05:15:28.012Z,6.17
2022-11-10T05:16:27.998Z,6.26
2022-11-10T05:17:27.988Z,6.27
2022-11-10T05:18:28.012Z,6.35
2022-11-10T05:19:27.963Z,6.28
2022-11-10T05:20:28.962Z,6.42
2022-11-10T05:21:27.960Z,6.44
2022-11-10T05:22:27.943Z,6.36
2022-11-10T05:23:27.970Z,6.56
2022-11-10T05:24:27.932Z,6.45
2022-11-10T05:25:27.918Z,6.62
2022-11-10T05:26:27.917Z,6.56
2022-11-10T05:27:27.910Z,6.48
2022-11-10T05:28:27.922Z,6.64
2022-11-10T05:29:27.889Z,6.59
2022-11-10T05:30:27.884Z,6.74
2022-11-10T05:31:27.871Z,6.70
2022-11-10T05:32:27.869Z,6.77
2022-11-10T05:33:27.894Z,6.67
2022-11-10T05:34:27.854Z,6.72
2022-11-10T05:35:27.847Z,6.56
2022-11-10T05:36:27.852Z,6.67
2022-11-10T05:37:27.838Z,6.44
2022-11-10T05:38:27.852Z,6.44
2022-11-10T05:39:27.816Z,6.38
2022-11-10T05:40:27.811Z,6.27
2022-11-10T05:41:27.800Z,6.30
2022-11-10T05:42:27.798Z,6.26
2022-11-10T05:43:27.813Z,6.19
2022-11-10T05:44:27.776Z,6.22
2022-11-10T05:45:27.775Z,6.12
2022-11-10T05:46:27.764Z,6.11
2022-11-10T05:47:27.753Z,6.19
2022-11-10T05:48:27.771Z,6.04
2022-11-10T05:49:27.742Z,6.04
2022-11-10T05:50:27.734Z,6.12
2022-11-10T05:51:27.728Z,6.07
2022-11-10T05:52:27.741Z,6.09
2022-11-10T05:53:27.705Z,6.08
2022-11-10T05:54:27.728Z,6.07
2022-11-10T05:55:27.697Z,6.12
2022-11-10T05:56:27.679Z,6.11
2022-11-10T05:57:27.672Z,5.99
2022-11-10T05:58:27.666Z,6.02
2022-11-10T05:59:27.684Z,5.98
2022-11-10T06:00:27.647Z,6.02
2022-11-10T06:01:28.646Z,5.89
2022-11-10T06:02:27.637Z,5.94
2022-11-10T06:03:28.062Z,5.97
2022-11-10T06:04:27.643Z,5.89
2022-11-10T06:05:31.105Z,5.86
2022-11-10T06:06:28.603Z,5.83
2022-11-10T06:07:27.588Z,5.82
2022-11-10T06:08:28.586Z,5.84
2022-11-10T06:09:27.608Z,5.91
2022-11-10T06:10:27.574Z,5.89
2022-11-10T06:11:27.570Z,5.84
2022-11-10T06:12:27.564Z,5.87
2022-11-10T06:13:27.547Z,5.80
2022-11-10T06:14:27.572Z,5.82
2022-11-10T06:15:27.535Z,5.80
2022-11-10T06:16:27.533Z,5.86
2022-11-10T06:17:27.517Z,5.75
2022-11-10T06:18:27.505Z,5.73
2022-11-10T06:19:27.525Z,5.76
2022-11-10T06:20:27.494Z,5.73
2022-11-10T06:21:27.480Z,5.83
2022-11-10T06:22:27.475Z,5.87
2022-11-10T06:23:27.470Z,5.84
2022-11-10T06:24:27.497Z,5.75
2022-11-10T06:25:27.456Z,5.82
2022-11-10T06:26:27.446Z,5.73
2022-11-10T06:27:27.436Z,5.72
2022-11-10T06:28:27.431Z,5.69
2022-11-10T06:29:27.446Z,5.56
2022-11-10T06:30:27.414Z,5.64
2022-11-10T06:31:27.405Z,5.57
2022-11-10T06:32:27.396Z,5.66
2022-11-10T06:33:27.386Z,5.57
2022-11-10T06:34:27.404Z,5.56
2022-11-10T06:35:27.372Z,5.59
2022-11-10T06:36:27.365Z,5.61
2022-11-10T06:37:27.355Z,5.64
2022-11-10T06:38:27.361Z,5.69
2022-11-10T06:39:27.366Z,5.66
2022-11-10T06:40:27.333Z,5.69
2022-11-10T06:41:27.323Z,5.71
2022-11-10T06:42:27.316Z,5.82
2022-11-10T06:43:27.310Z,5.93
2022-11-10T06:44:27.323Z,6.02
2022-11-10T06:45:27.294Z,6.04
2022-11-10T06:46:27.287Z,6.12
2022-11-10T06:47:27.277Z,6.09
2022-11-10T06:48:27.272Z,6.12
2022-11-10T06:49:27.316Z,6.17
2022-11-10T06:50:27.252Z,6.27
2022-11-10T06:51:27.245Z,6.16
2022-11-10T06:52:27.236Z,6.17
2022-11-10T06:53:27.388Z,6.24
2022-11-10T06:54:28.246Z,6.11
2022-11-10T06:55:27.213Z,6.27
2022-11-10T06:56:27.205Z,6.11
2022-11-10T06:57:27.205Z,6.27
2022-11-10T06:58:27.191Z,6.24
2022-11-10T06:59:27.208Z,6.05
2022-11-10T07:00:27.177Z,6.08
2022-11-10T07:01:27.247Z,6.20
2022-11-10T07:02:27.158Z,6.24
2022-11-10T07:03:27.154Z,6.28
2022-11-10T07:04:27.172Z,6.30
2022-11-10T07:05:27.137Z,6.33
2022-11-10T07:06:27.132Z,6.33
2022-11-10T07:07:27.115Z,6.48
2022-11-10T07:08:27.111Z,6.48
2022-11-10T07:09:27.137Z,6.66
2022-11-10T07:10:27.095Z,6.69
2022-11-10T07:11:27.101Z,6.78
2022-11-10T07:12:27.086Z,6.85
2022-11-10T07:13:27.074Z,7.00
2022-11-10T07:14:27.063Z,7.07
2022-11-10T07:15:27.080Z,7.15
2022-11-10T07:16:27.052Z,7.14
2022-11-10T07:17:27.039Z,7.15
2022-11-10T07:18:27.033Z,7.35
2022-11-10T07:19:27.025Z,7.38
2022-11-10T07:20:27.042Z,7.40
2022-11-10T07:21:27.010Z,7.33
2022-11-10T07:22:26.996Z,7.35
2022-11-10T07:23:26.986Z,7.43
2022-11-10T07:24:26.981Z,7.45
2022-11-10T07:25:27.001Z,7.50
2022-11-10T07:26:26.968Z,7.56
2022-11-10T07:27:26.968Z,7.56
2022-11-10T07:28:28.447Z,7.79
2022-11-10T07:29:27.939Z,7.85
2022-11-10T07:30:26.954Z,8.01
2022-11-10T07:31:26.925Z,8.01
2022-11-10T07:32:26.917Z,8.12
2022-11-10T07:33:26.906Z,8.18
2022-11-10T07:34:26.899Z,8.36
2022-11-10T07:35:26.917Z,8.34
2022-11-10T07:36:26.884Z,8.51
2022-11-10T07:37:26.877Z,8.58
2022-11-10T07:38:26.865Z,8.70
2022-11-10T07:39:26.862Z,8.69
2022-11-10T07:40:26.877Z,8.73
2022-11-10T07:41:26.841Z,8.84
2022-11-10T07:42:26.840Z,8.87
2022-11-10T07:43:26.827Z,8.94
2022-11-10T07:44:26.849Z,8.94
2022-11-10T07:45:26.813Z,8.95
2022-11-10T07:46:26.809Z,8.97
2022-11-10T07:47:26.801Z,9.03
2022-11-10T07:48:26.788Z,9.00
2022-11-10T07:49:26.809Z,8.99
2022-11-10T07:50:26.799Z,9.00
2022-11-10T07:51:26.768Z,9.10
2022-11-10T07:52:26.761Z,9.16
2022-11-10T07:53:26.757Z,9.11
2022-11-10T07:54:26.767Z,9.13
2022-11-10T07:55:26.734Z,9.08
2022-11-10T07:56:26.734Z,9.23
2022-11-10T07:57:26.724Z,9.29
2022-11-10T07:58:26.715Z,9.95
2022-11-10T07:59:26.737Z,10.61
2022-11-10T08:00:26.744Z,11.07
2022-11-10T08:01:26.724Z,11.57
2022-11-10T08:02:26.685Z,11.94
2022-11-10T08:03:26.796Z,12.03
2022-11-10T08:04:26.691Z,12.60
2022-11-10T08:05:26.661Z,12.78
2022-11-10T08:06:27.220Z,13.00
2022-11-10T08:07:26.724Z,13.15
2022-11-10T08:08:26.641Z,13.47
2022-11-10T08:09:26.651Z,13.33
2022-11-10T08:10:26.619Z,13.49
2022-11-10T08:11:26.616Z,13.78
2022-11-10T08:12:29.860Z,13.71
2022-11-10T08:13:27.598Z,13.79
2022-11-10T08:14:26.615Z,13.92
2022-11-10T08:15:26.586Z,14.29
2022-11-10T08:16:26.573Z,14.72
2022-11-10T08:17:26.567Z,14.89
2022-11-10T08:18:30.825Z,14.88
2022-11-10T08:19:28.574Z,15.31
2022-11-10T08:20:26.633Z,15.54
2022-11-10T08:21:26.538Z,15.58
2022-11-10T08:22:26.530Z,15.31
2022-11-10T08:23:26.511Z,15.29
2022-11-10T08:24:27.541Z,15.62
2022-11-10T08:25:31.616Z,15.43
2022-11-10T08:26:28.490Z,15.42
2022-11-10T08:27:26.486Z,14.69
2022-11-10T08:28:26.481Z,14.45
2022-11-10T08:29:26.498Z,13.95
2022-11-10T08:30:26.507Z,13.78
2022-11-10T08:31:26.453Z,13.27
2022-11-10T08:32:26.460Z,13.01
2022-11-10T08:33:26.625Z,12.78
2022-11-10T08:34:26.453Z,12.53
2022-11-10T08:35:26.454Z,12.64
2022-11-10T08:36:26.422Z,12.83
2022-11-10T08:37:26.411Z,12.98
2022-11-10T08:38:26.403Z,13.01
2022-11-10T08:39:38.521Z,13.27
2022-11-10T08:40:28.475Z,13.78
2022-11-10T08:41:26.381Z,14.11
2022-11-10T08:42:26.374Z,14.41
2022-11-10T08:43:26.461Z,14.32
2022-11-10T08:44:26.356Z,14.72
2022-11-10T08:45:26.361Z,14.86
2022-11-10T08:46:27.340Z,15.07
2022-11-10T08:47:26.327Z,15.58
2022-11-10T08:48:26.321Z,15.57
2022-11-10T08:49:26.308Z,15.59
2022-11-10T08:50:26.331Z,15.79
2022-11-10T08:51:26.299Z,15.55
2022-11-10T08:52:26.291Z,15.28
2022-11-10T08:53:26.520Z,15.11
2022-11-10T08:54:26.278Z,15.19
2022-11-10T08:55:26.291Z,15.62
2022-11-10T08:56:26.260Z,15.57
2022-11-10T08:57:26.250Z,14.96
2022-11-10T08:58:26.245Z,14.43
2022-11-10T08:59:26.234Z,13.92
2022-11-10T09:00:26.256Z,13.68
2022-11-10T09:01:26.217Z,13.52
2022-11-10T09:02:26.210Z,13.39
2022-11-10T09:03:26.685Z,13.27
2022-11-10T09:04:26.228Z,13.28
2022-11-10T09:05:26.210Z,12.97
2022-11-10T09:06:26.180Z,12.68
2022-11-10T09:07:26.167Z,12.75
2022-11-10T09:08:26.177Z,13.23
2022-11-10T09:09:26.158Z,13.11
2022-11-10T09:10:26.171Z,13.38
2022-11-10T09:11:26.140Z,13.60
2022-11-10T09:12:26.130Z,13.42
2022-11-10T09:13:29.801Z,13.20
2022-11-10T09:14:27.113Z,13.13
2022-11-10T09:15:26.136Z,12.94
2022-11-10T09:16:26.100Z,12.95
2022-11-10T09:17:26.091Z,12.98
2022-11-10T09:18:26.087Z,13.04
2022-11-10T09:19:26.151Z,12.86
2022-11-10T09:20:26.092Z,12.78
2022-11-10T09:21:26.057Z,12.60
2022-11-10T09:22:26.051Z,12.75
2022-11-10T09:23:26.183Z,12.70
2022-11-10T09:24:31.134Z,12.73
2022-11-10T09:25:28.051Z,12.55
2022-11-10T09:26:26.019Z,12.50
2022-11-10T09:27:26.018Z,12.42
2022-11-10T09:28:26.004Z,12.39
2022-11-10T09:29:26.005Z,12.29
2022-11-10T09:30:26.019Z,12.46
2022-11-10T09:31:25.987Z,12.53
2022-11-10T09:32:25.976Z,12.46
2022-11-10T09:33:26.327Z,12.46
2022-11-10T09:34:25.967Z,12.53
2022-11-10T09:35:25.980Z,12.40
2022-11-10T09:36:25.949Z,12.42
2022-11-10T09:37:25.937Z,12.37
2022-11-10T09:38:25.983Z,12.28
2022-11-10T09:39:25.919Z,12.25
2022-11-10T09:40:25.962Z,12.36
2022-11-10T09:41:25.904Z,12.25
2022-11-10T09:42:25.899Z,12.36
2022-11-10T09:43:25.893Z,12.31
2022-11-10T09:44:25.880Z,12.36
2022-11-10T09:45:25.903Z,12.35
2022-11-10T09:46:25.862Z,12.35
2022-11-10T09:48:27.851Z,12.36
2022-11-10T09:49:25.843Z,12.18
2022-11-10T09:50:25.873Z,12.27
2022-11-10T09:51:25.852Z,12.32
2022-11-10T09:52:25.817Z,12.36
2022-11-10T09:53:25.819Z,12.37
2022-11-10T09:54:25.805Z,12.47
2022-11-10T09:55:25.839Z,12.54
2022-11-10T09:56:25.812Z,12.54
2022-11-10T09:57:25.786Z,12.54
2022-11-10T09:58:25.775Z,12.47
2022-11-10T09:59:25.763Z,12.45
2022-11-10T10:00:25.821Z,12.43
2022-11-10T10:01:26.811Z,12.37
2022-11-10T10:02:25.737Z,12.36
2022-11-10T10:03:25.730Z,12.43
2022-11-10T10:04:25.722Z,12.53
2022-11-10T10:05:25.751Z,12.60
2022-11-10T10:06:30.550Z,12.61
2022-11-10T10:07:26.743Z,12.62
2022-11-10T10:08:25.751Z,12.70
2022-11-10T10:09:25.681Z,12.58
2022-11-10T10:10:25.753Z,12.70
2022-11-10T10:11:25.667Z,12.82
2022-11-10T10:12:25.650Z,12.85
2022-11-10T10:13:25.647Z,12.93
2022-11-10T10:14:25.641Z,13.05
2022-11-10T10:15:26.005Z,13.16
2022-11-10T10:16:26.648Z,13.27
2022-11-10T10:17:27.125Z,13.49
2022-11-10T10:18:26.607Z,13.60
2022-11-10T10:19:25.599Z,13.78
2022-11-10T10:20:25.632Z,13.92
2022-11-10T10:21:25.608Z,14.04
2022-11-10T10:22:25.573Z,14.08
2022-11-10T10:23:46.825Z,14.15
2022-11-10T10:24:27.554Z,14.05
2022-11-10T10:25:25.550Z,14.12
2022-11-10T10:26:25.564Z,14.08
2022-11-10T10:27:25.540Z,14.07
2022-11-10T10:28:25.840Z,14.05
2022-11-10T10:29:25.518Z,14.07
2022-11-10T10:30:25.508Z,14.11
2022-11-10T10:31:25.524Z,14.20
2022-11-10T10:32:25.599Z,14.14
2022-11-10T10:33:25.484Z,14.15
2022-11-10T10:34:25.480Z,14.26
2022-11-10T10:35:25.504Z,14.10
2022-11-10T10:36:25.488Z,14.18
2022-11-10T10:37:25.450Z,14.35
2022-11-10T10:38:25.596Z,14.28
2022-11-10T10:39:25.436Z,14.36
2022-11-10T10:40:25.465Z,14.45
2022-11-10T10:41:25.422Z,14.62
2022-11-10T10:42:25.412Z,14.79
2022-11-10T10:43:25.440Z,14.85
2022-11-10T10:44:25.401Z,14.99
2022-11-10T10:45:25.451Z,14.88
2022-11-10T10:46:25.405Z,14.86
2022-11-10T10:47:25.366Z,14.86
2022-11-10T10:48:25.361Z,14.77
2022-11-10T10:49:30.178Z,14.44
2022-11-10T10:50:27.378Z,14.29
2022-11-10T10:51:25.351Z,14.07
2022-11-10T10:52:25.501Z,13.93
2022-11-10T10:53:25.324Z,14.05
2022-11-10T10:54:25.317Z,13.93
2022-11-10T10:55:25.305Z,13.83
2022-11-10T10:56:25.321Z,13.86
2022-11-10T10:57:25.294Z,13.78
2022-11-10T10:58:25.861Z,13.83
2022-11-10T10:59:25.277Z,13.74
2022-11-10T11:00:25.272Z,13.83
2022-11-10T11:01:25.371Z,13.86
2022-11-10T11:02:25.253Z,13.83
2022-11-10T11:03:25.251Z,13.93
2022-11-10T11:04:25.241Z,14.04
2022-11-10T11:05:25.264Z,14.10
2022-11-10T11:06:25.261Z,14.07
2022-11-10T11:07:25.215Z,13.92
2022-11-10T11:08:25.462Z,13.89
2022-11-10T11:09:25.202Z,13.90
2022-11-10T11:10:25.189Z,13.85
2022-11-10T11:11:25.221Z,13.87
2022-11-10T11:12:25.174Z,13.93
2022-11-10T11:13:25.181Z,13.90
2022-11-10T11:14:25.158Z,13.83
2022-11-10T11:15:25.153Z,13.86
2022-11-10T11:16:25.171Z,13.74
2022-11-10T11:17:25.202Z,13.83
2022-11-10T11:18:25.438Z,13.87
2022-11-10T11:19:25.123Z,13.90
2022-11-10T11:20:25.111Z,13.89
2022-11-10T11:21:25.138Z,13.96
2022-11-10T11:22:25.127Z,14.03
2022-11-10T11:23:25.087Z,14.04
2022-11-10T11:24:25.079Z,14.11
2022-11-10T11:25:25.074Z,14.17
2022-11-10T11:26:25.065Z,14.07
2022-11-10T11:27:25.080Z,14.12
2022-11-10T11:28:25.343Z,14.04
2022-11-10T11:29:25.046Z,13.89
2022-11-10T11:30:25.035Z,13.77
2022-11-10T11:31:25.026Z,13.78
2022-11-10T11:32:25.043Z,13.75
2022-11-10T11:33:25.011Z,13.53
2022-11-10T11:34:24.997Z,13.42
2022-11-10T11:35:24.993Z,13.44
2022-11-10T11:36:25.004Z,13.47
2022-11-10T11:37:24.995Z,13.46
2022-11-10T11:38:25.307Z,13.53
2022-11-10T11:39:24.962Z,13.52
2022-11-10T11:40:24.956Z,13.44
2022-11-10T11:41:24.942Z,13.44
2022-11-10T11:42:24.960Z,13.62
2022-11-10T11:43:24.931Z,13.46
2022-11-10T11:44:24.922Z,13.41
2022-11-10T11:45:25.004Z,13.35
2022-11-10T11:46:24.909Z,13.20
2022-11-10T11:47:24.927Z,13.03
2022-11-10T11:48:25.384Z,12.94
2022-11-10T11:49:24.887Z,12.82
2022-11-10T11:50:24.885Z,12.86
2022-11-10T11:51:24.869Z,12.95
2022-11-10T11:52:24.883Z,12.79
2022-11-10T11:53:24.851Z,12.76
2022-11-10T11:54:24.844Z,12.78
2022-11-10T11:55:24.838Z,12.80
2022-11-10T11:56:24.824Z,12.78
2022-11-10T11:57:24.844Z,12.87
2022-11-10T11:58:25.268Z,12.97
2022-11-10T11:59:24.802Z,13.13
2022-11-10T12:00:24.802Z,13.13
2022-11-10T12:01:24.787Z,13.22
2022-11-10T12:02:24.835Z,13.31
2022-11-10T12:03:24.772Z,13.35
2022-11-10T12:04:24.766Z,13.30
2022-11-10T12:05:24.753Z,13.20
2022-11-10T12:06:24.739Z,13.18
2022-11-10T12:07:24.761Z,13.33
2022-11-10T12:08:26.706Z,13.25
2022-11-10T12:09:24.723Z,13.31
2022-11-10T12:10:24.714Z,13.31
2022-11-10T12:11:24.702Z,13.35
2022-11-10T12:12:24.722Z,13.37
2022-11-10T12:13:24.695Z,13.28
2022-11-10T12:14:24.688Z,13.46
2022-11-10T12:15:24.672Z,13.47
2022-11-10T12:16:24.666Z,13.49
2022-11-10T12:17:24.682Z,13.49
2022-11-10T12:18:24.854Z,13.63
2022-11-10T12:19:24.646Z,13.68
2022-11-10T12:20:24.649Z,13.79
2022-11-10T12:21:24.632Z,13.74
2022-11-10T12:22:24.715Z,13.59
2022-11-10T12:23:24.618Z,13.49
2022-11-10T12:24:24.608Z,13.27
2022-11-10T12:25:24.596Z,13.08
2022-11-10T12:26:24.595Z,12.94
2022-11-10T12:27:24.623Z,13.05
2022-11-10T12:28:24.872Z,13.05
2022-11-10T12:29:24.570Z,13.00
2022-11-10T12:30:24.564Z,13.00
2022-11-10T12:31:24.554Z,12.94
2022-11-10T12:32:24.542Z,12.94
2022-11-10T12:33:24.567Z,12.94
2022-11-10T12:34:24.526Z,12.73
2022-11-10T12:35:24.567Z,12.75
2022-11-10T12:36:24.511Z,12.83
2022-11-10T12:37:27.803Z,12.79
2022-11-10T12:38:25.653Z,12.87
2022-11-10T12:39:24.502Z,12.93
2022-11-10T12:40:24.480Z,13.00
2022-11-10T12:41:24.466Z,13.03
2022-11-10T12:42:24.485Z,12.95
2022-11-10T12:43:24.951Z,12.98
2022-11-10T12:44:24.445Z,12.93
2022-11-10T12:45:24.439Z,12.79
2022-11-10T12:46:24.430Z,12.70
2022-11-10T12:47:24.444Z,12.79
2022-11-10T12:48:24.687Z,12.72
2022-11-10T12:49:24.405Z,12.82
2022-11-10T12:50:24.397Z,12.76
2022-11-10T12:51:24.395Z,12.86
2022-11-10T12:52:24.427Z,12.93
2022-11-10T12:53:24.372Z,12.93
2022-11-10T12:54:24.367Z,12.98
2022-11-10T12:55:24.357Z,13.00
2022-11-10T12:56:24.359Z,12.94
2022-11-10T12:57:24.371Z,12.97
2022-11-10T12:58:24.748Z,13.00
2022-11-10T12:59:24.329Z,12.94
2022-11-10T13:00:28.190Z,12.95
2022-11-10T13:01:25.349Z,12.94
2022-11-10T13:02:24.324Z,13.01
2022-11-10T13:03:24.301Z,13.05
2022-11-10T13:04:24.283Z,12.97
2022-11-10T13:05:24.277Z,12.97
2022-11-10T13:06:24.270Z,12.90
2022-11-10T13:07:24.350Z,12.83
2022-11-10T13:08:24.656Z,12.93
2022-11-10T13:09:24.247Z,12.95